Terminal Aerodrome Forecast
Issued by NWS Los Angeles, CA

Home | Current Version | Previous Version | Text Only | Print | Product List | Glossary On
Versions: 1 2 3 4 5 6 7 8 9 10 11 12 13 14 15 16 17 18 19
000
FTUS46 KLOX 231700 RRA
TAFSMX
TAF
KSMX 231747Z 2318/2418 30014KT P6SM SCT200
     FM232000 31020G30KT P6SM SCT200
     FM240300 32012KT P6SM SCT200
     FM240600 32005KT P6SM SCT250
     FM241500 32008G15KT P6SM FEW250=

USA.gov is the U.S. government's official web portal to all federal, state and local government web resources and services.